Terminal Aerodrome Forecast
Issued by NWS Louisville, KY

Home | Current Version | Previous Version | Text Only | Print | Product List | Glossary On
Versions: 1 2 3 4 5 6 7 8 9 10 11 12 13 14 15 16 17 18
000
FTUS43 KLMK 151300 AAB
TAFLEX
TAF AMD
KLEX 151319Z 1513/1612 33015KT 6SM -SN SCT010 BKN028
     FM151500 33013G21KT P6SM BKN035
     FM160100 VRB04KT P6SM SKC=

USA.gov is the U.S. government's official web portal to all federal, state and local government web resources and services.